PQI weather

Presque Isle International Airport
Presque Isle, Maine, United States

Public forecast

Using degrees Fahrenheit for public forecast. Weather courtesy of forecast.io.

Current aviation weather report (METAR) for Presque Isle International Airport

Retrieved 2019/10/18 12:33 UTC (3 minutes ago):

KPQI 181233Z AUTO 27009KT 10SM -RA FEW012 SCT017 OVC045 03/02 A2939 RMK AO2 P0000

Aviation forecast (TAF) for Presque Isle International Airport

Retrieved 2019/10/18 12:22 UTC (14 minutes ago):

TAF KPQI 181120Z 1812/1912 31010G16KT P6SM -DZ OVC015 FM181500 31012G22KT P6SM OVC025 FM190000 30008KT P6SM BKN035